Aérodrome :
LOGIN :

S'inscrire | Disclaimer

   EN    FR    IT 

 










Légende :    VFR   VFR Marginal   IFR   IFR Intensif   IFR Très Intensif
Visi : 
Plafond : 
>= 8 km
>= 3000ft
5 à 8 km
1000 à 3000 ft
1500m à 5 km
500 à 1000 ft
800 à 1500m
200 à 500 ft
< 800m
< 200 ft
Symboles :   Orages  Brouillard  Fortes neiges  Fortes précipitations  Vent > 20 kt
SIGMETs :   Divers  Orages  Givrage  Turbulence  Onde Orograph.  Cendres Volcan.






- Altitude de l'aérodrome : 2001 ft
- Code IATA : MAD


LEMD - Madrid

DERNIER METAR :
  • 230800Z 30002KT CAVOK 27/10 Q1022 NOSIG

METARs EXPIRÉS :
  • 230730Z 00000KT CAVOK 25/10 Q1022 NOSIG
  • 230700Z 00000KT CAVOK 24/09 Q1022 NOSIG
  • 230630Z 35003KT CAVOK 22/08 Q1022 NOSIG
  • 230600Z VRB02KT CAVOK 21/08 Q1022 NOSIG
  • 230530Z 34003KT CAVOK 20/08 Q1022 NOSIG
  • 230500Z VRB01KT CAVOK 20/08 Q1022 NOSIG
  • 230430Z 00000KT CAVOK 20/09 Q1022 NOSIG
  • 230400Z 00000KT CAVOK 20/09 Q1021 NOSIG
  • 230330Z 33005KT CAVOK 21/08 Q1021 NOSIG

TAF TAF LEMD
Valide du 23 à 06h jusqu'au 24 à 12h UTC


230500Z 2306/2412 07005KT CAVOK TX39/2316Z TN22/2404Z
BECMG 2311/2313 17004KT
PROB40
TEMPO 2323/2404 01010KT



MET'MAP, la Météo Aéronautique d'un coup d'oeil ! - Copyright ORBIFLY Décembre 2007 - Disclaimer

ORBIFLY MET'MAP TEAM :

Programmation & Développement : Alexandra Zaïnal
Sur une idée originale de : Baudouin d'Aumeries
Soutien technique & logistique : Manuel Goepfert
Assistance : Marc-Olivier Méhu




SOURCES & CREDITS :

   NOAA